Time;durP1;ratioP1;P1;durP2;ratioP2;P2;SDS_P1;SDS_P2;PMS_P1;PMS_P2;Temp;Humidity;BMP_temperature;BMP_pressure;BME280_temperature;BME280_humidity;BME280_pressure;Samples;Min_cycle;Max_cycle;Signal;HPM_P1;HPM_P2
2020/12/22 00:19:46;;;;;;;1.20;1.10;;;9.00;99.90;;;;;;5874048;22;20262;-93
2020/12/22 00:22:12;;;;;;;1.35;1.20;;;9.00;99.90;;;;;;5052049;28;20033;-94
2020/12/22 00:24:38;;;;;;;1.20;1.10;;;9.00;99.90;;;;;;5013175;28;20034;-93
2020/12/22 00:27:03;;;;;;;1.15;1.05;;;8.90;99.90;;;;;;5008552;28;20491;-95
2020/12/22 00:29:29;;;;;;;2.47;1.35;;;8.90;99.90;;;;;;5006300;28;20026;-92
2020/12/22 00:32:00;;;;;;;2.00;1.27;;;8.90;99.90;;;;;;5013531;28;20520;-93
2020/12/22 00:34:30;;;;;;;1.98;1.33;;;8.90;99.90;;;;;;5009860;28;20065;-95
2020/12/22 00:36:56;;;;;;;1.80;1.55;;;8.90;99.90;;;;;;5025503;28;20032;-92
2020/12/22 00:39:22;;;;;;;1.77;1.60;;;8.90;99.90;;;;;;5010765;28;20140;-95
2020/12/22 00:41:57;;;;;;;2.47;1.95;;;8.90;99.90;;;;;;5010439;28;20022;-94
2020/12/22 00:44:25;;;;;;;2.65;2.00;;;8.80;99.90;;;;;;5008668;28;20498;-94
2020/12/22 00:46:54;;;;;;;3.05;1.90;;;8.80;99.90;;;;;;5008836;28;20083;-95
2020/12/22 00:49:20;;;;;;;2.58;2.30;;;8.80;99.90;;;;;;5009491;28;20395;-94
2020/12/22 00:51:45;;;;;;;2.58;2.38;;;8.80;99.90;;;;;;5005812;28;20033;-94
2020/12/22 00:54:11;;;;;;;3.10;2.40;;;8.80;99.90;;;;;;5007679;28;20044;-95
2020/12/22 00:56:37;;;;;;;3.13;2.83;;;8.80;99.90;;;;;;5004832;28;20028;-94
2020/12/22 00:59:02;;;;;;;4.35;3.33;;;8.70;99.90;;;;;;5007555;28;20064;-95
2020/12/22 01:01:30;;;;;;;5.28;3.88;;;8.70;99.90;;;;;;5005738;28;20049;-95
2020/12/22 01:03:59;;;;;;;4.47;3.70;;;8.70;99.90;;;;;;5008145;28;20014;-95
2020/12/22 01:06:36;;;;;;;6.78;3.78;;;8.70;99.90;;;;;;5002270;28;20022;-94
2020/12/22 01:09:02;;;;;;;4.30;3.47;;;8.70;99.90;;;;;;5007456;28;20028;-96
2020/12/22 01:11:32;;;;;;;3.97;3.47;;;8.60;99.90;;;;;;5005835;28;20029;-93
2020/12/22 01:13:58;;;;;;;3.10;2.80;;;8.60;99.90;;;;;;5006643;28;20033;-93
2020/12/22 01:16:24;;;;;;;2.65;2.20;;;8.60;99.90;;;;;;5004605;28;20030;-93
2020/12/22 01:18:49;;;;;;;3.35;2.58;;;8.60;99.90;;;;;;5005988;28;20565;-94
2020/12/22 01:21:19;;;;;;;2.70;2.45;;;8.60;99.90;;;;;;5005502;28;20042;-94
2020/12/22 01:23:45;;;;;;;3.22;2.45;;;8.60;99.90;;;;;;5004302;28;20061;-94
2020/12/22 01:26:11;;;;;;;2.10;1.90;;;8.50;99.90;;;;;;5007944;28;20112;-93
2020/12/22 01:28:36;;;;;;;2.03;1.83;;;8.50;99.90;;;;;;5005659;28;20021;-94
2020/12/22 01:31:02;;;;;;;1.73;1.60;;;8.50;99.90;;;;;;5006829;28;20033;-94
2020/12/22 01:33:28;;;;;;;2.03;1.73;;;8.40;99.90;;;;;;5004191;28;20516;-94
2020/12/22 01:35:53;;;;;;;1.70;1.60;;;8.40;99.90;;;;;;5005905;28;20053;-94
2020/12/22 01:38:19;;;;;;;2.28;1.60;;;8.30;99.90;;;;;;5008010;28;20022;-94
2020/12/22 01:40:49;;;;;;;1.52;1.40;;;8.30;99.90;;;;;;5004257;28;20025;-94
2020/12/22 01:43:14;;;;;;;2.30;1.70;;;8.30;99.90;;;;;;5007589;28;20514;-94
2020/12/22 01:45:40;;;;;;;2.20;1.73;;;8.20;99.90;;;;;;5003059;28;20116;-94
2020/12/22 01:48:06;;;;;;;1.75;1.58;;;8.20;99.90;;;;;;5013340;28;20507;-93
2020/12/22 01:50:32;;;;;;;3.35;1.92;;;8.10;99.90;;;;;;5021003;28;20101;-92
2020/12/22 01:52:57;;;;;;;2.78;1.60;;;8.10;99.90;;;;;;5021377;28;20061;-92
2020/12/22 01:55:23;;;;;;;1.88;1.50;;;8.10;99.90;;;;;;5027242;28;20030;-94
2020/12/22 01:57:49;;;;;;;2.03;1.70;;;8.10;99.90;;;;;;5031164;28;20017;-95
2020/12/22 02:00:14;;;;;;;2.00;1.77;;;8.10;99.90;;;;;;5027662;28;20042;-93
2020/12/22 02:02:40;;;;;;;6.18;2.70;;;8.10;99.90;;;;;;5024729;28;20474;-94
2020/12/22 02:05:06;;;;;;;1.95;1.55;;;8.10;99.90;;;;;;5014765;28;20022;-93
2020/12/22 02:07:32;;;;;;;2.67;2.20;;;8.00;99.90;;;;;;5011634;28;20399;-94
2020/12/22 02:09:58;;;;;;;2.35;2.15;;;8.00;99.90;;;;;;5006219;28;20022;-94
2020/12/22 02:12:23;;;;;;;4.07;2.20;;;8.00;99.90;;;;;;5008320;28;20096;-94
2020/12/22 02:14:49;;;;;;;2.50;2.25;;;8.00;99.90;;;;;;5008001;28;20588;-94
2020/12/22 02:17:15;;;;;;;4.30;2.78;;;8.00;99.90;;;;;;5006683;28;20021;-94
2020/12/22 02:19:40;;;;;;;3.92;3.22;;;8.00;99.90;;;;;;5005479;28;20125;-93
2020/12/22 02:22:06;;;;;;;5.68;4.15;;;8.00;99.90;;;;;;5006085;28;20369;-93
2020/12/22 02:24:35;;;;;;;5.05;3.88;;;7.90;99.90;;;;;;5010459;28;20487;-94
2020/12/22 02:27:05;;;;;;;4.18;3.35;;;7.90;99.90;;;;;;5010084;28;20542;-94
2020/12/22 02:29:31;;;;;;;4.10;3.03;;;7.80;99.90;;;;;;5025866;28;20024;-94
2020/12/22 02:32:00;;;;;;;6.30;4.70;;;7.80;99.90;;;;;;5010575;28;20034;-94
2020/12/22 02:34:26;;;;;;;6.60;4.70;;;7.80;99.90;;;;;;5008859;28;20026;-93
2020/12/22 02:36:52;;;;;;;7.63;4.93;;;7.80;99.90;;;;;;5010805;28;20108;-94
2020/12/22 02:39:18;;;;;;;4.93;3.83;;;7.80;99.90;;;;;;5010766;28;20112;-93
2020/12/22 02:41:43;;;;;;;9.55;5.75;;;7.70;99.90;;;;;;5008585;28;20103;-95
2020/12/22 02:44:09;;;;;;;7.75;5.35;;;7.70;99.90;;;;;;5011292;28;20061;-94
2020/12/22 02:46:35;;;;;;;7.95;5.40;;;7.70;99.90;;;;;;5007809;28;20104;-94
2020/12/22 02:49:04;;;;;;;7.82;5.38;;;7.70;99.90;;;;;;5012321;28;20029;-94
2020/12/22 02:51:30;;;;;;;9.32;6.20;;;7.70;99.90;;;;;;5005014;28;20109;-95
2020/12/22 02:53:56;;;;;;;11.30;6.47;;;7.70;99.90;;;;;;5007221;28;20045;-95
2020/12/22 02:56:22;;;;;;;12.07;6.30;;;7.70;99.90;;;;;;5007155;28;20483;-94
2020/12/22 02:58:50;;;;;;;10.00;6.25;;;7.70;99.90;;;;;;5007567;28;20028;-93
2020/12/22 03:01:16;;;;;;;11.20;7.13;;;7.70;99.90;;;;;;5007343;28;20036;-94
2020/12/22 03:03:41;;;;;;;12.50;7.50;;;7.60;99.90;;;;;;5006846;28;20113;-94
2020/12/22 03:06:07;;;;;;;12.57;8.52;;;7.70;99.90;;;;;;5009536;28;20026;-94
2020/12/22 03:08:33;;;;;;;13.15;8.10;;;7.60;99.90;;;;;;5008062;28;20025;-94
2020/12/22 03:10:59;;;;;;;15.10;9.00;;;7.60;99.90;;;;;;5007309;28;20025;-94
2020/12/22 03:13:25;;;;;;;18.50;10.27;;;7.60;99.90;;;;;;5007462;28;20034;-94
2020/12/22 03:15:51;;;;;;;16.05;9.23;;;7.60;99.90;;;;;;5012754;28;20029;-93
2020/12/22 03:18:18;;;;;;;13.10;7.13;;;7.60;99.90;;;;;;5008279;28;20483;-93
2020/12/22 03:20:44;;;;;;;15.05;8.60;;;7.60;99.90;;;;;;5008881;28;20049;-94
2020/12/22 03:23:10;;;;;;;16.45;9.25;;;7.60;99.90;;;;;;5007250;28;20022;-94
2020/12/22 03:25:36;;;;;;;14.68;7.93;;;7.60;99.90;;;;;;5009819;28;20022;-93
2020/12/22 03:28:02;;;;;;;18.92;9.25;;;7.60;99.90;;;;;;5009819;28;20036;-94
2020/12/22 03:30:27;;;;;;;15.77;8.60;;;7.50;99.90;;;;;;5006233;28;20022;-94
2020/12/22 03:32:53;;;;;;;17.95;9.73;;;7.50;99.90;;;;;;5007715;28;20117;-94
2020/12/22 03:35:19;;;;;;;18.20;9.55;;;7.50;99.90;;;;;;5006369;28;20061;-94
2020/12/22 03:37:44;;;;;;;15.65;8.48;;;7.50;99.90;;;;;;5006728;28;20383;-93
2020/12/22 03:40:12;;;;;;;11.98;6.95;;;7.50;99.90;;;;;;5008671;28;20021;-94
2020/12/22 03:42:39;;;;;;;13.35;7.18;;;7.40;99.90;;;;;;5010918;28;20026;-93
2020/12/22 03:45:07;;;;;;;11.15;6.80;;;7.40;99.90;;;;;;5006400;28;20033;-93
2020/12/22 03:47:33;;;;;;;10.68;6.63;;;7.40;99.90;;;;;;5007593;28;20021;-93
2020/12/22 03:49:59;;;;;;;11.18;6.45;;;7.40;99.90;;;;;;5010577;28;20034;-93
2020/12/22 03:52:24;;;;;;;13.02;6.95;;;7.30;99.90;;;;;;5008547;28;20018;-94
2020/12/22 03:54:50;;;;;;;11.32;6.28;;;7.30;99.90;;;;;;5009381;28;20084;-93
2020/12/22 03:57:16;;;;;;;12.60;7.70;;;7.30;99.90;;;;;;5007714;28;20060;-92
2020/12/22 03:59:43;;;;;;;13.77;8.18;;;7.30;99.90;;;;;;5005679;28;20487;-93
2020/12/22 04:02:09;;;;;;;12.50;7.63;;;7.20;99.90;;;;;;5005920;28;20079;-94
2020/12/22 04:04:36;;;;;;;13.05;7.88;;;7.20;99.90;;;;;;5005785;28;20017;-93
2020/12/22 04:07:02;;;;;;;13.40;8.30;;;7.20;99.90;;;;;;5007813;28;20022;-92
2020/12/22 04:09:27;;;;;;;14.50;7.88;;;7.10;99.90;;;;;;5006164;28;20029;-94
2020/12/22 04:11:53;;;;;;;12.82;8.40;;;7.10;99.90;;;;;;5010337;28;20056;-93
2020/12/22 04:14:20;;;;;;;14.60;9.48;;;7.00;99.90;;;;;;5007268;28;20045;-93
2020/12/22 04:16:46;;;;;;;14.80;9.40;;;7.00;99.90;;;;;;5008528;28;20044;-94
2020/12/22 04:19:12;;;;;;;13.57;8.90;;;7.00;99.90;;;;;;5006172;28;20026;-93
2020/12/22 04:21:38;;;;;;;14.10;9.05;;;6.90;99.90;;;;;;5009231;28;20384;-94
2020/12/22 04:24:04;;;;;;;13.82;8.15;;;6.90;99.90;;;;;;5007798;28;20033;-94
2020/12/22 04:26:30;;;;;;;13.07;7.93;;;6.80;99.90;;;;;;5005081;28;20022;-94
2020/12/22 04:28:56;;;;;;;13.10;7.72;;;6.80;99.90;;;;;;5005440;28;20044;-93
2020/12/22 04:31:22;;;;;;;13.32;7.47;;;6.80;99.90;;;;;;5007764;28;20018;-93
2020/12/22 04:33:53;;;;;;;12.93;7.63;;;6.70;99.90;;;;;;5005397;28;20044;-93
2020/12/22 04:36:19;;;;;;;13.88;7.45;;;6.70;99.90;;;;;;5006430;28;20029;-93
2020/12/22 04:38:45;;;;;;;12.98;8.07;;;6.60;99.90;;;;;;5001866;28;20018;-94
2020/12/22 04:41:13;;;;;;;12.02;7.40;;;6.70;99.90;;;;;;4996969;28;20034;-94
2020/12/22 04:43:40;;;;;;;14.18;7.50;;;6.60;99.90;;;;;;5007370;28;20029;-93
2020/12/22 04:46:07;;;;;;;11.07;6.90;;;6.60;99.90;;;;;;5007661;28;20025;-94
2020/12/22 04:48:38;;;;;;;10.30;6.78;;;6.50;99.90;;;;;;5003666;28;20022;-93
2020/12/22 04:51:08;;;;;;;12.18;7.72;;;6.50;99.90;;;;;;5007873;28;20026;-94
2020/12/22 04:53:34;;;;;;;;;;;6.50;99.90;;;;;;5007141;28;20021;-93
2020/12/22 04:56:09;;;;;;;9.50;6.13;;;6.50;99.90;;;;;;5006954;28;19920;-93
2020/12/22 04:58:35;;;;;;;9.88;5.70;;;6.50;99.90;;;;;;5006181;28;20032;-94
2020/12/22 05:01:02;;;;;;;11.38;5.88;;;6.40;99.90;;;;;;5003896;28;20022;-94
2020/12/22 05:03:28;;;;;;;11.38;6.88;;;6.40;99.90;;;;;;5017043;28;20026;-94
2020/12/22 05:05:54;;;;;;;9.10;6.03;;;6.40;99.90;;;;;;5013043;28;20029;-93
2020/12/22 05:08:20;;;;;;;10.23;6.00;;;6.30;99.90;;;;;;5006391;28;20022;-92
2020/12/22 05:10:50;;;;;;;8.40;6.03;;;6.20;99.90;;;;;;5028720;28;20041;-93
2020/12/22 05:13:18;;;;;;;9.82;6.38;;;6.20;99.90;;;;;;5032444;28;20037;-94
2020/12/22 05:15:47;;;;;;;9.88;5.30;;;6.10;99.90;;;;;;5029357;28;20050;-93
2020/12/22 05:18:13;;;;;;;8.75;4.90;;;6.10;99.90;;;;;;5028439;28;20052;-92
2020/12/22 05:20:43;;;;;;;8.77;5.88;;;6.00;99.90;;;;;;5009824;28;20053;-93
2020/12/22 05:23:13;;;;;;;8.65;5.75;;;6.00;99.90;;;;;;5007790;28;20032;-94
2020/12/22 05:25:39;;;;;;;8.10;4.95;;;5.90;99.90;;;;;;5005623;28;20018;-93
2020/12/22 05:28:07;;;;;;;7.93;5.30;;;5.80;99.90;;;;;;5005569;28;20085;-94
2020/12/22 05:30:35;;;;;;;8.75;5.40;;;5.80;99.90;;;;;;5006149;28;20436;-93
2020/12/22 05:33:04;;;;;;;10.30;6.28;;;5.70;99.90;;;;;;5006003;28;20018;-93
2020/12/22 05:35:37;;;;;;;8.50;5.60;;;5.60;99.90;;;;;;5007354;28;20029;-93
2020/12/22 05:38:04;;;;;;;12.70;6.57;;;5.60;99.90;;;;;;5007441;28;20014;-94
2020/12/22 05:40:31;;;;;;;9.35;5.97;;;5.50;99.90;;;;;;5004935;28;20060;-94
2020/12/22 05:42:58;;;;;;;10.63;6.28;;;5.40;99.90;;;;;;5004648;28;20014;-94
2020/12/22 05:45:24;;;;;;;11.10;6.10;;;5.40;99.90;;;;;;5006740;28;20494;-94
2020/12/22 05:47:53;;;;;;;11.48;6.53;;;5.30;99.90;;;;;;4999066;28;20044;-93
2020/12/22 05:50:21;;;;;;;9.93;4.72;;;5.30;99.90;;;;;;5006701;28;20084;-93
2020/12/22 05:52:46;;;;;;;11.75;5.95;;;5.20;99.90;;;;;;5004693;28;20071;-93
2020/12/22 05:55:12;;;;;;;11.73;6.00;;;5.20;99.90;;;;;;5001658;28;20029;-93
2020/12/22 05:57:38;;;;;;;11.43;5.90;;;5.20;99.90;;;;;;5005900;28;20025;-92
2020/12/22 06:00:15;;;;;;;11.30;6.70;;;5.20;99.90;;;;;;5004831;28;20063;-93
2020/12/22 06:02:42;;;;;;;9.85;5.40;;;5.20;99.90;;;;;;5022532;28;20072;-93
2020/12/22 06:05:08;;;;;;;10.68;6.75;;;5.10;99.90;;;;;;5004196;28;20095;-93
2020/12/22 06:07:33;;;;;;;11.48;6.22;;;5.10;99.90;;;;;;4999252;28;20046;-93
2020/12/22 06:09:59;;;;;;;8.43;5.40;;;5.10;99.90;;;;;;5003673;28;20065;-93
2020/12/22 06:12:25;;;;;;;15.48;6.68;;;5.00;99.90;;;;;;5005214;28;20494;-94
2020/12/22 06:14:57;;;;;;;9.05;5.70;;;5.00;99.90;;;;;;4999817;28;20242;-94
2020/12/22 06:17:23;;;;;;;8.95;5.40;;;4.90;99.90;;;;;;5004088;28;20033;-93
2020/12/22 06:19:49;;;;;;;8.55;5.18;;;4.90;99.90;;;;;;5010796;28;20139;-92
2020/12/22 06:22:19;;;;;;;9.93;5.72;;;4.80;99.90;;;;;;5007398;28;20024;-94
2020/12/22 06:24:45;;;;;;;7.30;4.70;;;4.80;99.90;;;;;;5003029;28;20116;-93
2020/12/22 06:27:14;;;;;;;10.77;5.30;;;4.80;99.90;;;;;;5010554;28;20028;-93
2020/12/22 06:29:45;;;;;;;9.70;4.90;;;4.70;99.90;;;;;;5005834;28;20034;-92
2020/12/22 06:32:16;;;;;;;9.27;4.97;;;4.70;99.90;;;;;;5003321;28;20088;-94
2020/12/22 06:34:45;;;;;;;8.15;4.38;;;4.60;99.90;;;;;;5007590;28;20026;-93
2020/12/22 06:37:11;;;;;;;8.93;4.28;;;4.50;99.90;;;;;;5015286;28;20025;-93
2020/12/22 06:39:45;;;;;;;9.15;3.63;;;4.50;99.90;;;;;;5009256;28;20025;-92
2020/12/22 06:42:30;;;;;;;7.28;3.55;;;4.50;99.90;;;;;;5006883;28;20018;-94
2020/12/22 06:45:28;;;;;;;7.13;3.85;;;4.40;99.90;;;;;;5002222;28;20061;-93
2020/12/22 06:47:55;;;;;;;7.40;3.63;;;4.40;99.90;;;;;;5018106;28;20040;-93
2020/12/22 06:50:46;;;;;;;8.70;3.80;;;4.30;99.90;;;;;;5010042;28;20040;-93
2020/12/22 06:53:34;;;;;;;8.05;3.28;;;4.30;99.90;;;;;;5017138;28;20034;-93
2020/12/22 06:56:01;;;;;;;5.70;3.47;;;4.20;99.90;;;;;;5004798;28;20077;-94
2020/12/22 06:58:40;;;;;;;7.78;2.97;;;4.10;99.90;;;;;;5007325;28;20107;-93
2020/12/22 07:01:24;;;;;;;7.45;3.10;;;4.10;99.90;;;;;;5003828;28;20041;-93
2020/12/22 07:03:50;;;;;;;5.57;3.28;;;4.00;99.90;;;;;;5022077;28;20057;-93
2020/12/22 07:06:57;;;;;;;5.93;2.97;;;4.00;99.90;;;;;;5009839;28;20029;-93
2020/12/22 07:09:30;;;;;;;6.90;2.80;;;4.00;99.90;;;;;;5008153;28;20029;-93
2020/12/22 07:12:10;;;;;;;9.57;3.00;;;3.90;99.90;;;;;;5025100;28;20014;-93
2020/12/22 07:14:50;;;;;;;5.37;2.63;;;3.90;99.90;;;;;;5004939;28;20403;-93
2020/12/22 07:17:21;;;;;;;6.65;2.10;;;3.90;99.90;;;;;;5022312;28;20025;-92
2020/12/22 07:19:53;;;;;;;7.72;2.40;;;3.90;99.90;;;;;;4995375;28;20089;-94
2020/12/22 07:22:19;;;;;;;8.05;2.95;;;3.90;99.90;;;;;;5008247;28;20030;-94
2020/12/22 07:24:45;;;;;;;10.38;4.05;;;3.80;99.90;;;;;;5006871;28;20163;-94
2020/12/22 07:27:11;;;;;;;5.22;2.40;;;3.80;99.90;;;;;;5026592;28;20140;-93
2020/12/22 07:29:38;;;;;;;8.52;2.70;;;3.80;99.90;;;;;;5024442;28;20059;-94
2020/12/22 07:32:04;;;;;;;5.07;2.58;;;3.80;99.90;;;;;;5007640;28;20031;-93
2020/12/22 07:34:31;;;;;;;7.60;2.17;;;3.80;99.90;;;;;;5008869;28;20454;-94
2020/12/22 07:37:11;;;;;;;6.15;2.47;;;3.80;99.90;;;;;;5022208;28;20455;-93
2020/12/22 07:39:38;;;;;;;8.65;2.25;;;3.80;99.90;;;;;;5025654;28;20013;-94
2020/12/22 07:42:17;;;;;;;7.82;2.90;;;3.80;99.90;;;;;;5027179;28;20186;-93
2020/12/22 07:44:46;;;;;;;4.65;2.30;;;3.80;99.90;;;;;;4990534;28;20242;-94
2020/12/22 07:47:12;;;;;;;5.78;2.03;;;3.70;99.90;;;;;;5000215;28;20033;-95
2020/12/22 07:49:39;;;;;;;8.35;2.35;;;3.70;99.90;;;;;;5013140;28;20330;-94
2020/12/22 07:52:05;;;;;;;8.13;2.05;;;3.70;99.90;;;;;;4990878;28;20032;-94
2020/12/22 07:54:31;;;;;;;3.38;1.90;;;3.60;99.90;;;;;;4990292;28;20038;-95
2020/12/22 07:57:00;;;;;;;7.60;1.65;;;3.60;99.90;;;;;;4990836;28;20032;-94
2020/12/22 07:59:27;;;;;;;8.63;2.03;;;3.60;99.90;;;;;;5017152;28;20081;-95
2020/12/22 08:01:54;;;;;;;6.00;2.53;;;3.60;99.90;;;;;;5008276;28;20034;-94
2020/12/22 08:04:27;;;;;;;4.30;2.08;;;3.50;99.90;;;;;;5002547;28;20029;-94
2020/12/22 08:07:08;;;;;;;5.88;2.00;;;3.60;99.90;;;;;;5005381;28;20026;-94
2020/12/22 08:09:43;;;;;;;9.35;1.25;;;3.60;99.90;;;;;;5008016;28;20021;-96
2020/12/22 08:12:10;;;;;;;4.10;1.52;;;3.60;99.90;;;;;;5011354;28;20479;-95
2020/12/22 08:14:43;;;;;;;3.83;1.48;;;3.50;99.90;;;;;;5000222;28;20034;-95
2020/12/22 08:17:21;;;;;;;8.05;1.63;;;3.60;99.90;;;;;;5004943;28;20029;-95
2020/12/22 08:19:48;;;;;;;6.00;1.48;;;3.50;99.90;;;;;;5016860;28;20136;-95
2020/12/22 08:22:24;;;;;;;5.68;1.70;;;3.60;99.90;;;;;;5016303;28;20021;-95
2020/12/22 08:24:53;;;;;;;6.63;1.60;;;3.60;99.90;;;;;;5018116;28;20033;-96
2020/12/22 08:27:19;;;;;;;6.32;1.25;;;3.60;99.90;;;;;;5019934;28;20029;-95
2020/12/22 08:29:46;;;;;;;4.88;1.45;;;3.60;99.90;;;;;;5020394;28;20018;-95
2020/12/22 08:32:24;;;;;;;6.03;1.10;;;3.60;99.90;;;;;;5002543;28;20022;-95
2020/12/22 08:34:53;;;;;;;3.85;1.40;;;3.60;99.90;;;;;;5015490;28;20034;-95
2020/12/22 08:37:32;;;;;;;10.93;1.83;;;3.60;99.90;;;;;;5013145;28;20026;-95
2020/12/22 08:45:43;;;;;;;8.30;1.30;;;3.60;99.90;;;;;;5548911;22;20040;-95
2020/12/22 10:31:46;;;;;;;7.20;2.05;;;6.30;99.90;;;;;;2253165;22;20458;-92
2020/12/22 10:34:24;;;;;;;5.77;1.80;;;6.60;99.90;;;;;;5011432;28;20065;-93
2020/12/22 10:36:54;;;;;;;5.00;1.60;;;6.80;99.90;;;;;;5013580;28;20034;-95
2020/12/22 10:39:29;;;;;;;6.40;1.75;;;7.00;99.90;;;;;;5104298;22;20026;-95
2020/12/22 10:47:11;;;;;;;8.35;1.60;;;7.50;99.90;;;;;;5053293;28;20056;-95
2020/12/22 10:49:38;;;;;;;6.32;1.30;;;7.70;99.90;;;;;;5026692;28;20046;-96
2020/12/22 10:52:04;;;;;;;4.82;1.58;;;7.90;99.90;;;;;;5024935;28;20332;-95
2020/12/22 10:54:32;;;;;;;4.80;1.42;;;8.00;99.90;;;;;;5035612;28;20082;-96
2020/12/22 10:56:58;;;;;;;5.43;1.50;;;8.20;99.90;;;;;;5028228;28;20036;-93
2020/12/22 10:59:23;;;;;;;7.75;1.58;;;8.30;99.90;;;;;;5025342;28;20025;-94
2020/12/22 11:01:56;;;;;;;10.75;1.80;;;8.40;99.90;;;;;;5038072;28;20018;-96
2020/12/22 11:04:24;;;;;;;7.25;2.15;;;8.50;99.90;;;;;;5029536;28;20047;-96
2020/12/22 11:09:30;;;;;;;8.75;1.52;;;8.60;99.90;;;;;;5047703;28;20012;-95
2020/12/22 11:12:00;;;;;;;16.67;3.33;;;8.70;99.90;;;;;;5055652;28;20105;-95
2020/12/22 11:14:26;;;;;;;4.00;1.42;;;8.70;99.90;;;;;;5047251;28;20044;-95
2020/12/22 11:16:52;;;;;;;5.57;1.52;;;8.80;99.90;;;;;;5042342;28;20124;-95
2020/12/22 11:19:18;;;;;;;9.80;1.80;;;8.80;99.90;;;;;;5040599;28;20502;-96
2020/12/22 11:21:44;;;;;;;4.88;1.25;;;8.80;99.90;;;;;;5036973;28;20238;-95
2020/12/22 11:24:10;;;;;;;4.88;1.20;;;8.80;99.90;;;;;;5039212;28;20025;-96
2020/12/22 11:26:40;;;;;;;7.47;1.40;;;8.80;99.90;;;;;;5036905;28;20340;-95
2020/12/22 11:29:06;;;;;;;12.65;2.00;;;8.80;99.90;;;;;;5037206;28;20022;-95
2020/12/22 11:31:31;;;;;;;9.02;2.00;;;8.80;99.90;;;;;;5037396;28;20060;-94
2020/12/22 11:33:57;;;;;;;10.27;2.38;;;8.70;99.90;;;;;;5037860;28;20029;-94
2020/12/22 11:36:23;;;;;;;7.00;1.70;;;8.40;99.90;;;;;;5039220;28;20049;-96
2020/12/22 11:38:48;;;;;;;6.75;2.47;;;8.20;99.90;;;;;;5043648;28;20081;-95
2020/12/22 11:41:24;;;;;;;5.15;2.30;;;8.10;99.90;;;;;;5055239;28;20037;-94
2020/12/22 11:43:50;;;;;;;10.73;2.65;;;8.00;99.90;;;;;;5059470;28;20073;-95
2020/12/22 11:46:17;;;;;;;8.13;2.20;;;7.90;99.90;;;;;;5057451;28;20047;-94
2020/12/22 11:48:43;;;;;;;6.50;2.30;;;7.90;99.90;;;;;;5042695;28;20013;-95
2020/12/22 11:56:42;;;;;;;13.05;4.68;;;7.60;99.90;;;;;;5050441;28;20053;-94
2020/12/22 11:59:07;;;;;;;7.97;3.90;;;7.60;99.90;;;;;;5027685;28;20438;-93
2020/12/22 12:04:55;;;;;;;12.23;3.75;;;7.50;99.90;;;;;;5049243;28;20045;-95
2020/12/22 12:07:35;;;;;;;;;;;7.50;99.90;;;;;;5031683;28;20037;-96
2020/12/22 12:10:04;;;;;;;11.70;3.60;;;7.50;99.90;;;;;;5029661;28;19912;-96
2020/12/22 12:12:30;;;;;;;10.95;3.30;;;7.50;99.90;;;;;;5023350;28;20037;-95
2020/12/22 12:14:55;;;;;;;7.30;2.72;;;7.50;99.90;;;;;;5022709;28;20033;-95
2020/12/22 12:17:27;;;;;;;13.10;2.40;;;7.60;99.90;;;;;;5025357;28;20036;-96
2020/12/22 12:19:53;;;;;;;12.32;2.38;;;7.50;99.90;;;;;;5022138;28;20041;-95
2020/12/22 12:22:19;;;;;;;11.07;2.70;;;7.50;99.90;;;;;;5028425;28;20025;-95
2020/12/22 12:25:19;;;;;;;7.68;1.70;;;7.60;99.90;;;;;;5034247;28;20015;-95
2020/12/22 12:27:51;;;;;;;13.02;2.03;;;7.50;99.90;;;;;;5028598;28;20083;-93
2020/12/22 12:30:17;;;;;;;7.43;1.98;;;7.50;99.90;;;;;;5038304;28;20025;-94
2020/12/22 12:32:43;;;;;;;14.98;2.65;;;7.40;99.90;;;;;;5020498;28;20061;-94
2020/12/22 12:37:43;;;;;;;14.75;2.10;;;7.50;99.90;;;;;;5027973;28;20022;-96
2020/12/22 12:40:13;;;;;;;9.50;2.45;;;7.50;99.90;;;;;;5019853;28;20048;-96
2020/12/22 12:42:39;;;;;;;12.75;2.33;;;7.50;99.90;;;;;;4995568;28;20041;-96
2020/12/22 12:45:29;;;;;;;12.60;1.80;;;7.50;99.90;;;;;;5018589;28;20017;-95
2020/12/22 12:47:55;;;;;;;9.13;2.15;;;7.50;99.90;;;;;;5016242;28;20018;-96
2020/12/22 13:56:48;;;;;;;8.95;2.30;;;6.90;99.90;;;;;;5055194;28;20045;-93
2020/12/22 13:59:14;;;;;;;17.25;3.35;;;6.80;99.90;;;;;;5054028;28;20029;-92
2020/12/22 14:01:43;;;;;;;14.90;4.25;;;6.80;99.90;;;;;;5057499;28;20028;-96
2020/12/22 14:04:10;;;;;;;13.43;3.80;;;6.80;99.90;;;;;;5064640;28;20029;-96
2020/12/22 14:06:40;;;;;;;11.00;3.22;;;6.80;99.90;;;;;;5070361;28;20032;-96
2020/12/22 14:11:44;;;;;;;7.57;2.30;;;6.70;99.90;;;;;;5399619;22;20060;-95
2020/12/22 14:20:14;;;;;;;9.00;2.22;;;6.70;99.90;;;;;;5276541;22;20055;-96
2020/12/22 16:42:12;;;;;;;15.23;3.45;;;5.30;99.90;;;;;;5520020;22;20095;-96
2020/12/22 16:44:46;;;;;;;5.35;2.83;;;5.40;99.90;;;;;;5048641;28;20041;-96
2020/12/22 16:51:25;;;;;;;9.00;2.70;;;5.50;99.90;;;;;;5002855;28;20424;-96
2020/12/22 16:54:33;;;;;;;;;;;;;;;;;;;;;
2020/12/22 16:57:49;;;;;;;15.90;3.78;;;5.60;99.90;;;;;;4997833;28;20121;-96
2020/12/22 17:00:37;;;;;;;;;;;;;;;;;;;;;
2020/12/22 17:03:06;;;;;;;10.15;4.22;;;5.60;99.90;;;;;;5011158;28;20121;-94
2020/12/22 17:05:35;;;;;;;10.57;5.13;;;5.60;99.90;;;;;;4999172;28;20528;-96
2020/12/22 17:08:10;;;;;;;15.30;3.90;;;5.60;99.90;;;;;;4981747;28;20038;-95
2020/12/22 17:10:38;;;;;;;12.85;3.45;;;5.60;99.90;;;;;;4993350;28;20022;-95
2020/12/22 17:13:14;;;;;;;10.30;3.85;;;5.60;99.90;;;;;;5001677;28;20046;-95
2020/12/22 17:15:43;;;;;;;8.80;4.15;;;5.60;99.90;;;;;;4997196;28;20038;-95
2020/12/22 17:18:28;;;;;;;11.80;5.22;;;5.60;99.90;;;;;;4989793;28;20053;-95
2020/12/22 17:21:09;;;;;;;13.85;5.65;;;5.60;99.90;;;;;;4980543;28;20042;-96
2020/12/22 17:23:54;;;;;;;11.55;5.45;;;5.60;99.90;;;;;;5006635;28;20030;-96
2020/12/22 17:26:24;;;;;;;12.32;4.18;;;5.50;99.90;;;;;;5021735;28;20036;-96
2020/12/22 17:28:51;;;;;;;10.23;3.60;;;5.50;99.90;;;;;;5050811;28;20539;-95
2020/12/22 17:31:20;;;;;;;14.57;4.60;;;5.50;99.90;;;;;;5037753;28;20040;-96
2020/12/22 17:33:48;;;;;;;11.05;3.70;;;5.40;99.90;;;;;;5046702;28;20052;-94
2020/12/22 17:36:19;;;;;;;8.50;4.05;;;5.40;99.90;;;;;;5058461;28;20056;-95
2020/12/22 17:38:54;;;;;;;10.52;3.67;;;5.40;99.90;;;;;;5041119;28;20470;-95
2020/12/22 17:42:20;;;;;;;9.85;3.65;;;5.30;99.90;;;;;;5043915;28;20502;-95
2020/12/22 17:44:27;;;;;;;11.55;4.47;;;5.30;99.90;;;;;;5045612;28;20041;-94
2020/12/22 17:47:02;;;;;;;11.70;4.65;;;5.30;99.90;;;;;;5047973;28;20033;-96
2020/12/22 17:49:28;;;;;;;12.30;4.07;;;5.20;99.90;;;;;;5047161;28;20037;-95
2020/12/22 17:52:35;;;;;;;8.40;3.50;;;5.20;99.90;;;;;;5055226;28;20029;-95
2020/12/22 17:55:31;;;;;;;;;;;;;;;;;;;;;
2020/12/22 17:58:13;;;;;;;;;;;;;;;;;;;;;
2020/12/22 18:00:51;;;;;;;11.43;4.90;;;5.00;99.90;;;;;;5029690;28;20116;-96
2020/12/22 18:03:34;;;;;;;8.43;4.32;;;5.00;99.90;;;;;;5027779;28;20457;-95
2020/12/22 18:06:45;;;;;;;12.95;6.25;;;4.90;99.90;;;;;;5033998;28;20108;-94
2020/12/22 18:09:32;;;;;;;;;;;;;;;;;;;;;
2020/12/22 18:12:36;;;;;;;14.23;5.32;;;4.80;99.90;;;;;;5040402;28;20085;-96
2020/12/22 18:15:21;;;;;;;;;;;;;;;;;;;;;
2020/12/22 18:18:03;;;;;;;12.30;6.03;;;4.70;99.90;;;;;;5032549;28;20094;-96
2020/12/22 18:20:41;;;;;;;14.52;6.90;;;4.60;99.90;;;;;;5031716;28;20029;-96
2020/12/22 18:23:45;;;;;;;15.90;7.50;;;4.60;99.90;;;;;;5026351;28;20030;-95
2020/12/22 18:26:44;;;;;;;16.33;7.38;;;4.50;99.90;;;;;;5039970;28;20028;-96
2020/12/22 18:29:19;;;;;;;12.60;5.10;;;4.50;99.90;;;;;;5059515;28;20030;-96
2020/12/22 18:31:54;;;;;;;9.55;4.95;;;4.50;99.90;;;;;;5042940;28;20053;-95
2020/12/22 18:34:52;;;;;;;12.38;6.65;;;4.50;99.90;;;;;;5041022;28;20052;-96
2020/12/22 18:37:30;;;;;;;18.00;7.90;;;4.50;99.90;;;;;;4995829;28;20053;-95
2020/12/22 18:40:13;;;;;;;10.30;4.43;;;4.40;99.90;;;;;;5042137;28;20032;-96
2020/12/22 18:42:48;;;;;;;9.25;5.55;;;4.40;99.90;;;;;;5044718;28;20032;-96
2020/12/22 18:45:19;;;;;;;16.38;8.02;;;4.40;99.90;;;;;;5029570;28;20082;-94
2020/12/22 18:47:48;;;;;;;18.17;7.45;;;4.40;99.90;;;;;;5024463;28;20017;-95
2020/12/22 18:50:14;;;;;;;23.55;9.48;;;4.30;99.90;;;;;;5028842;28;20033;-96
2020/12/22 18:52:45;;;;;;;20.40;10.25;;;4.20;99.90;;;;;;5033642;28;20120;-93
2020/12/22 18:55:14;;;;;;;28.77;12.57;;;4.10;99.90;;;;;;5026422;28;20036;-94
2020/12/22 18:57:47;;;;;;;28.67;12.65;;;4.00;99.90;;;;;;5039554;28;20033;-96
2020/12/22 19:00:22;;;;;;;49.83;19.67;;;4.00;99.90;;;;;;5034333;28;20042;-95
2020/12/22 19:03:02;;;;;;;34.90;17.17;;;4.00;99.90;;;;;;5030840;28;20136;-95
2020/12/22 19:05:54;;;;;;;39.80;17.27;;;3.90;99.90;;;;;;5035059;28;20504;-95
2020/12/22 19:08:28;;;;;;;31.80;16.85;;;3.90;99.90;;;;;;5045062;28;20037;-95
2020/12/22 19:11:04;;;;;;;42.83;18.13;;;3.80;99.90;;;;;;5058353;28;20387;-95
2020/12/22 19:13:45;;;;;;;20.05;9.52;;;3.80;99.90;;;;;;5051999;28;20017;-96
2020/12/22 19:17:18;;;;;;;42.30;19.13;;;3.80;99.90;;;;;;5048108;28;20041;-95
2020/12/22 19:20:27;;;;;;;46.75;20.80;;;3.80;99.90;;;;;;4948298;29;20019;-96
2020/12/22 19:22:55;;;;;;;38.30;18.77;;;3.80;99.90;;;;;;4932883;29;20043;-96
2020/12/22 19:25:38;;;;;;;41.22;19.25;;;3.70;99.90;;;;;;4964509;28;20050;-95